sensor_id;sensor_type;location;lat;lon;timestamp;P1;durP1;ratioP1;P2;durP2;ratioP2
73729;SDS011;62036;48.128;16.458;2024-02-23T00:02:20;1.52;;;0.95;;
73729;SDS011;62036;48.128;16.458;2024-02-23T00:04:46;1.73;;;0.90;;
73729;SDS011;62036;48.128;16.458;2024-02-23T00:07:12;1.33;;;0.90;;
73729;SDS011;62036;48.128;16.458;2024-02-23T00:09:38;1.50;;;0.70;;
73729;SDS011;62036;48.128;16.458;2024-02-23T00:12:04;0.68;;;0.68;;
73729;SDS011;62036;48.128;16.458;2024-02-23T00:14:31;1.45;;;1.00;;
73729;SDS011;62036;48.128;16.458;2024-02-23T00:16:57;2.75;;;1.50;;
73729;SDS011;62036;48.128;16.458;2024-02-23T00:19:24;2.63;;;1.73;;
73729;SDS011;62036;48.128;16.458;2024-02-23T00:21:50;3.67;;;2.30;;
73729;SDS011;62036;48.128;16.458;2024-02-23T00:24:18;3.58;;;1.70;;
73729;SDS011;62036;48.128;16.458;2024-02-23T00:26:45;1.40;;;1.00;;
73729;SDS011;62036;48.128;16.458;2024-02-23T00:29:12;1.75;;;1.10;;
73729;SDS011;62036;48.128;16.458;2024-02-23T00:31:38;3.50;;;1.50;;
73729;SDS011;62036;48.128;16.458;2024-02-23T00:34:06;2.70;;;1.63;;
73729;SDS011;62036;48.128;16.458;2024-02-23T00:36:35;2.20;;;1.60;;
73729;SDS011;62036;48.128;16.458;2024-02-23T00:39:02;3.25;;;1.50;;
73729;SDS011;62036;48.128;16.458;2024-02-23T00:41:28;3.63;;;1.45;;
73729;SDS011;62036;48.128;16.458;2024-02-23T00:43:54;2.03;;;1.30;;
73729;SDS011;62036;48.128;16.458;2024-02-23T00:46:20;2.38;;;1.45;;
73729;SDS011;62036;48.128;16.458;2024-02-23T00:48:46;1.67;;;1.40;;
73729;SDS011;62036;48.128;16.458;2024-02-23T00:51:12;1.95;;;1.25;;
73729;SDS011;62036;48.128;16.458;2024-02-23T00:53:38;3.15;;;1.45;;
73729;SDS011;62036;48.128;16.458;2024-02-23T00:56:04;3.10;;;1.13;;
73729;SDS011;62036;48.128;16.458;2024-02-23T00:58:30;3.08;;;1.67;;
73729;SDS011;62036;48.128;16.458;2024-02-23T01:00:56;3.80;;;1.52;;
73729;SDS011;62036;48.128;16.458;2024-02-23T01:03:22;4.18;;;2.22;;
73729;SDS011;62036;48.128;16.458;2024-02-23T01:05:48;1.95;;;1.40;;
73729;SDS011;62036;48.128;16.458;2024-02-23T01:08:14;2.10;;;1.52;;
73729;SDS011;62036;48.128;16.458;2024-02-23T01:10:41;1.40;;;1.08;;
73729;SDS011;62036;48.128;16.458;2024-02-23T01:13:07;3.63;;;1.60;;
73729;SDS011;62036;48.128;16.458;2024-02-23T01:15:33;1.67;;;1.00;;
73729;SDS011;62036;48.128;16.458;2024-02-23T01:17:59;1.42;;;1.33;;
73729;SDS011;62036;48.128;16.458;2024-02-23T01:20:25;1.60;;;1.25;;
73729;SDS011;62036;48.128;16.458;2024-02-23T01:22:51;1.73;;;1.20;;
73729;SDS011;62036;48.128;16.458;2024-02-23T01:25:17;2.78;;;1.30;;
73729;SDS011;62036;48.128;16.458;2024-02-23T01:27:44;2.42;;;1.00;;
73729;SDS011;62036;48.128;16.458;2024-02-23T01:30:10;3.45;;;1.27;;
73729;SDS011;62036;48.128;16.458;2024-02-23T01:32:36;1.30;;;1.08;;
73729;SDS011;62036;48.128;16.458;2024-02-23T01:35:04;1.75;;;1.35;;
73729;SDS011;62036;48.128;16.458;2024-02-23T01:37:31;3.25;;;1.55;;
73729;SDS011;62036;48.128;16.458;2024-02-23T01:39:57;3.33;;;1.50;;
73729;SDS011;62036;48.128;16.458;2024-02-23T01:42:24;2.92;;;1.70;;
73729;SDS011;62036;48.128;16.458;2024-02-23T01:44:51;3.13;;;1.80;;
73729;SDS011;62036;48.128;16.458;2024-02-23T01:47:17;2.80;;;1.58;;
73729;SDS011;62036;48.128;16.458;2024-02-23T01:49:43;1.80;;;1.40;;
73729;SDS011;62036;48.128;16.458;2024-02-23T01:52:10;3.20;;;1.80;;
73729;SDS011;62036;48.128;16.458;2024-02-23T01:54:37;3.00;;;1.38;;
73729;SDS011;62036;48.128;16.458;2024-02-23T01:57:03;2.50;;;1.77;;
73729;SDS011;62036;48.128;16.458;2024-02-23T01:59:29;2.00;;;1.60;;
73729;SDS011;62036;48.128;16.458;2024-02-23T02:01:56;2.70;;;1.35;;
73729;SDS011;62036;48.128;16.458;2024-02-23T02:04:22;3.42;;;1.45;;
73729;SDS011;62036;48.128;16.458;2024-02-23T02:06:48;1.73;;;1.42;;
73729;SDS011;62036;48.128;16.458;2024-02-23T02:09:15;2.38;;;1.65;;
73729;SDS011;62036;48.128;16.458;2024-02-23T02:11:47;1.88;;;1.70;;
73729;SDS011;62036;48.128;16.458;2024-02-23T02:14:14;2.13;;;1.38;;
73729;SDS011;62036;48.128;16.458;2024-02-23T02:16:40;3.00;;;2.00;;
73729;SDS011;62036;48.128;16.458;2024-02-23T02:19:07;3.45;;;1.65;;
73729;SDS011;62036;48.128;16.458;2024-02-23T02:21:33;3.90;;;2.00;;
73729;SDS011;62036;48.128;16.458;2024-02-23T02:23:59;2.53;;;1.67;;
73729;SDS011;62036;48.128;16.458;2024-02-23T02:26:25;3.58;;;2.20;;
73729;SDS011;62036;48.128;16.458;2024-02-23T02:28:51;3.55;;;1.98;;
73729;SDS011;62036;48.128;16.458;2024-02-23T02:31:17;2.20;;;2.00;;
73729;SDS011;62036;48.128;16.458;2024-02-23T02:33:44;3.30;;;1.52;;
73729;SDS011;62036;48.128;16.458;2024-02-23T02:36:10;4.07;;;1.80;;
73729;SDS011;62036;48.128;16.458;2024-02-23T02:38:36;3.28;;;2.20;;
73729;SDS011;62036;48.128;16.458;2024-02-23T02:41:03;3.80;;;2.35;;
73729;SDS011;62036;48.128;16.458;2024-02-23T02:43:30;3.83;;;2.15;;
73729;SDS011;62036;48.128;16.458;2024-02-23T02:45:56;5.40;;;2.75;;
73729;SDS011;62036;48.128;16.458;2024-02-23T02:48:22;3.60;;;2.53;;
73729;SDS011;62036;48.128;16.458;2024-02-23T02:50:48;2.35;;;1.58;;
73729;SDS011;62036;48.128;16.458;2024-02-23T02:53:15;2.78;;;2.40;;
73729;SDS011;62036;48.128;16.458;2024-02-23T02:55:41;3.42;;;2.03;;
73729;SDS011;62036;48.128;16.458;2024-02-23T02:58:07;4.80;;;2.13;;
73729;SDS011;62036;48.128;16.458;2024-02-23T03:00:33;3.42;;;1.90;;
73729;SDS011;62036;48.128;16.458;2024-02-23T03:02:59;4.30;;;1.88;;
73729;SDS011;62036;48.128;16.458;2024-02-23T03:05:25;5.75;;;2.50;;
73729;SDS011;62036;48.128;16.458;2024-02-23T03:07:52;4.20;;;2.67;;
73729;SDS011;62036;48.128;16.458;2024-02-23T03:10:18;2.80;;;2.00;;
73729;SDS011;62036;48.128;16.458;2024-02-23T03:12:44;2.92;;;2.50;;
73729;SDS011;62036;48.128;16.458;2024-02-23T03:15:10;4.30;;;2.83;;
73729;SDS011;62036;48.128;16.458;2024-02-23T03:17:36;4.10;;;2.75;;
73729;SDS011;62036;48.128;16.458;2024-02-23T03:20:02;3.65;;;2.67;;
73729;SDS011;62036;48.128;16.458;2024-02-23T03:22:36;3.88;;;2.55;;
73729;SDS011;62036;48.128;16.458;2024-02-23T03:25:02;4.18;;;2.55;;
73729;SDS011;62036;48.128;16.458;2024-02-23T03:27:37;4.22;;;2.67;;
73729;SDS011;62036;48.128;16.458;2024-02-23T03:30:04;6.65;;;2.50;;
73729;SDS011;62036;48.128;16.458;2024-02-23T03:32:30;4.45;;;2.50;;
73729;SDS011;62036;48.128;16.458;2024-02-23T03:35:01;6.80;;;3.40;;
73729;SDS011;62036;48.128;16.458;2024-02-23T03:37:28;4.07;;;3.20;;
73729;SDS011;62036;48.128;16.458;2024-02-23T03:39:54;3.95;;;2.72;;
73729;SDS011;62036;48.128;16.458;2024-02-23T03:42:20;3.25;;;2.65;;
73729;SDS011;62036;48.128;16.458;2024-02-23T03:44:46;4.18;;;3.10;;
73729;SDS011;62036;48.128;16.458;2024-02-23T03:47:12;4.60;;;2.90;;
73729;SDS011;62036;48.128;16.458;2024-02-23T03:49:38;6.13;;;4.00;;
73729;SDS011;62036;48.128;16.458;2024-02-23T03:52:05;6.05;;;3.80;;
73729;SDS011;62036;48.128;16.458;2024-02-23T03:54:31;4.40;;;3.15;;
73729;SDS011;62036;48.128;16.458;2024-02-23T03:56:57;7.35;;;4.35;;
73729;SDS011;62036;48.128;16.458;2024-02-23T03:59:23;5.90;;;4.32;;
73729;SDS011;62036;48.128;16.458;2024-02-23T04:01:50;7.05;;;4.53;;
73729;SDS011;62036;48.128;16.458;2024-02-23T04:04:16;6.88;;;4.40;;
73729;SDS011;62036;48.128;16.458;2024-02-23T04:06:42;9.18;;;4.50;;
73729;SDS011;62036;48.128;16.458;2024-02-23T04:09:08;8.60;;;5.57;;
73729;SDS011;62036;48.128;16.458;2024-02-23T04:11:34;7.55;;;4.05;;
73729;SDS011;62036;48.128;16.458;2024-02-23T04:14:00;8.98;;;3.95;;
73729;SDS011;62036;48.128;16.458;2024-02-23T04:16:26;7.55;;;3.70;;
73729;SDS011;62036;48.128;16.458;2024-02-23T04:18:53;5.03;;;3.33;;
73729;SDS011;62036;48.128;16.458;2024-02-23T04:21:19;4.05;;;2.78;;
73729;SDS011;62036;48.128;16.458;2024-02-23T04:23:45;4.00;;;3.33;;
73729;SDS011;62036;48.128;16.458;2024-02-23T04:26:12;4.05;;;2.58;;
73729;SDS011;62036;48.128;16.458;2024-02-23T04:28:38;4.65;;;3.40;;
73729;SDS011;62036;48.128;16.458;2024-02-23T04:31:04;8.48;;;3.88;;
73729;SDS011;62036;48.128;16.458;2024-02-23T04:33:30;5.55;;;3.83;;
73729;SDS011;62036;48.128;16.458;2024-02-23T04:35:57;3.67;;;2.70;;
73729;SDS011;62036;48.128;16.458;2024-02-23T04:38:24;2.90;;;2.58;;
73729;SDS011;62036;48.128;16.458;2024-02-23T04:40:50;6.13;;;3.80;;
73729;SDS011;62036;48.128;16.458;2024-02-23T04:43:16;6.38;;;3.15;;
73729;SDS011;62036;48.128;16.458;2024-02-23T04:45:42;2.17;;;1.90;;
73729;SDS011;62036;48.128;16.458;2024-02-23T04:48:09;3.75;;;2.03;;
73729;SDS011;62036;48.128;16.458;2024-02-23T04:50:35;3.92;;;2.28;;
73729;SDS011;62036;48.128;16.458;2024-02-23T04:53:02;2.83;;;1.80;;
73729;SDS011;62036;48.128;16.458;2024-02-23T04:55:28;2.75;;;1.50;;
73729;SDS011;62036;48.128;16.458;2024-02-23T04:57:54;2.33;;;1.40;;
73729;SDS011;62036;48.128;16.458;2024-02-23T05:00:20;1.27;;;1.05;;
73729;SDS011;62036;48.128;16.458;2024-02-23T05:02:47;1.70;;;1.23;;
73729;SDS011;62036;48.128;16.458;2024-02-23T05:05:13;1.83;;;1.40;;
73729;SDS011;62036;48.128;16.458;2024-02-23T05:07:39;1.63;;;1.40;;
73729;SDS011;62036;48.128;16.458;2024-02-23T05:10:05;1.42;;;1.02;;
73729;SDS011;62036;48.128;16.458;2024-02-23T05:12:31;1.10;;;0.77;;
73729;SDS011;62036;48.128;16.458;2024-02-23T05:14:57;1.42;;;0.50;;
73729;SDS011;62036;48.128;16.458;2024-02-23T05:17:23;0.77;;;0.75;;
73729;SDS011;62036;48.128;16.458;2024-02-23T05:19:49;0.38;;;0.38;;
73729;SDS011;62036;48.128;16.458;2024-02-23T05:22:16;0.40;;;0.20;;
73729;SDS011;62036;48.128;16.458;2024-02-23T05:24:42;0.30;;;0.30;;
73729;SDS011;62036;48.128;16.458;2024-02-23T05:27:09;0.30;;;0.28;;
73729;SDS011;62036;48.128;16.458;2024-02-23T05:29:35;0.63;;;0.30;;
73729;SDS011;62036;48.128;16.458;2024-02-23T05:32:01;0.65;;;0.30;;
73729;SDS011;62036;48.128;16.458;2024-02-23T05:34:28;0.43;;;0.20;;
73729;SDS011;62036;48.128;16.458;2024-02-23T05:36:55;1.33;;;0.20;;
73729;SDS011;62036;48.128;16.458;2024-02-23T05:39:21;0.32;;;0.32;;
73729;SDS011;62036;48.128;16.458;2024-02-23T05:41:47;1.92;;;0.52;;
73729;SDS011;62036;48.128;16.458;2024-02-23T05:44:13;0.80;;;0.50;;
73729;SDS011;62036;48.128;16.458;2024-02-23T05:46:39;0.57;;;0.30;;
73729;SDS011;62036;48.128;16.458;2024-02-23T05:49:05;0.40;;;0.35;;
73729;SDS011;62036;48.128;16.458;2024-02-23T05:51:32;0.80;;;0.30;;
73729;SDS011;62036;48.128;16.458;2024-02-23T05:54:00;0.35;;;0.20;;
73729;SDS011;62036;48.128;16.458;2024-02-23T05:56:26;0.50;;;0.30;;
73729;SDS011;62036;48.128;16.458;2024-02-23T05:58:52;0.45;;;0.25;;
73729;SDS011;62036;48.128;16.458;2024-02-23T06:01:18;0.40;;;0.40;;
73729;SDS011;62036;48.128;16.458;2024-02-23T06:03:44;0.20;;;0.20;;
73729;SDS011;62036;48.128;16.458;2024-02-23T06:06:11;0.28;;;0.28;;
73729;SDS011;62036;48.128;16.458;2024-02-23T06:08:37;1.15;;;0.20;;
73729;SDS011;62036;48.128;16.458;2024-02-23T06:11:03;0.57;;;0.20;;
73729;SDS011;62036;48.128;16.458;2024-02-23T06:13:32;0.98;;;0.45;;
73729;SDS011;62036;48.128;16.458;2024-02-23T06:15:59;0.40;;;0.20;;
73729;SDS011;62036;48.128;16.458;2024-02-23T06:18:25;0.47;;;0.30;;
73729;SDS011;62036;48.128;16.458;2024-02-23T06:20:51;0.47;;;0.35;;
73729;SDS011;62036;48.128;16.458;2024-02-23T06:23:17;1.33;;;0.30;;
73729;SDS011;62036;48.128;16.458;2024-02-23T06:25:44;0.40;;;0.20;;
73729;SDS011;62036;48.128;16.458;2024-02-23T06:28:10;0.75;;;0.20;;
73729;SDS011;62036;48.128;16.458;2024-02-23T06:30:36;1.90;;;0.35;;
73729;SDS011;62036;48.128;16.458;2024-02-23T06:33:02;0.30;;;0.28;;
73729;SDS011;62036;48.128;16.458;2024-02-23T06:35:29;1.42;;;0.10;;
73729;SDS011;62036;48.128;16.458;2024-02-23T06:37:56;0.20;;;0.20;;
73729;SDS011;62036;48.128;16.458;2024-02-23T06:40:22;0.93;;;0.35;;
73729;SDS011;62036;48.128;16.458;2024-02-23T06:42:48;0.20;;;0.10;;
73729;SDS011;62036;48.128;16.458;2024-02-23T06:45:15;0.20;;;0.13;;
73729;SDS011;62036;48.128;16.458;2024-02-23T06:47:41;0.60;;;0.30;;
73729;SDS011;62036;48.128;16.458;2024-02-23T06:50:07;0.60;;;0.10;;
73729;SDS011;62036;48.128;16.458;2024-02-23T06:52:33;1.13;;;0.22;;
73729;SDS011;62036;48.128;16.458;2024-02-23T06:54:59;0.85;;;0.20;;
73729;SDS011;62036;48.128;16.458;2024-02-23T06:57:25;0.20;;;0.10;;
73729;SDS011;62036;48.128;16.458;2024-02-23T06:59:52;0.63;;;0.30;;
73729;SDS011;62036;48.128;16.458;2024-02-23T07:02:18;0.43;;;0.25;;
73729;SDS011;62036;48.128;16.458;2024-02-23T07:04:44;0.52;;;0.20;;
73729;SDS011;62036;48.128;16.458;2024-02-23T07:07:10;0.32;;;0.30;;
73729;SDS011;62036;48.128;16.458;2024-02-23T07:09:36;0.32;;;0.30;;
73729;SDS011;62036;48.128;16.458;2024-02-23T07:12:03;1.25;;;0.30;;
73729;SDS011;62036;48.128;16.458;2024-02-23T07:14:29;1.20;;;0.43;;
73729;SDS011;62036;48.128;16.458;2024-02-23T07:16:55;0.60;;;0.50;;
73729;SDS011;62036;48.128;16.458;2024-02-23T07:19:21;0.77;;;0.43;;
73729;SDS011;62036;48.128;16.458;2024-02-23T07:21:47;0.50;;;0.40;;
73729;SDS011;62036;48.128;16.458;2024-02-23T07:24:13;1.73;;;0.32;;
73729;SDS011;62036;48.128;16.458;2024-02-23T07:26:39;0.30;;;0.30;;
73729;SDS011;62036;48.128;16.458;2024-02-23T07:29:07;0.08;;;0.08;;
73729;SDS011;62036;48.128;16.458;2024-02-23T07:31:33;2.67;;;0.30;;
73729;SDS011;62036;48.128;16.458;2024-02-23T07:33:59;0.70;;;0.10;;
73729;SDS011;62036;48.128;16.458;2024-02-23T07:36:25;0.32;;;0.30;;
73729;SDS011;62036;48.128;16.458;2024-02-23T07:38:51;1.00;;;0.60;;
73729;SDS011;62036;48.128;16.458;2024-02-23T07:41:17;0.95;;;0.60;;
73729;SDS011;62036;48.128;16.458;2024-02-23T07:43:43;1.30;;;0.60;;
73729;SDS011;62036;48.128;16.458;2024-02-23T07:46:09;1.95;;;0.57;;
73729;SDS011;62036;48.128;16.458;2024-02-23T07:48:35;1.02;;;0.50;;
73729;SDS011;62036;48.128;16.458;2024-02-23T07:51:02;0.98;;;0.28;;
73729;SDS011;62036;48.128;16.458;2024-02-23T07:53:29;0.45;;;0.45;;
73729;SDS011;62036;48.128;16.458;2024-02-23T07:55:55;0.45;;;0.30;;
73729;SDS011;62036;48.128;16.458;2024-02-23T07:58:24;0.50;;;0.50;;
73729;SDS011;62036;48.128;16.458;2024-02-23T08:00:51;0.98;;;0.40;;
73729;SDS011;62036;48.128;16.458;2024-02-23T08:03:18;0.55;;;0.55;;
73729;SDS011;62036;48.128;16.458;2024-02-23T08:05:44;3.60;;;1.77;;
73729;SDS011;62036;48.128;16.458;2024-02-23T08:08:10;2.03;;;0.82;;
73729;SDS011;62036;48.128;16.458;2024-02-23T08:10:36;0.75;;;0.63;;
73729;SDS011;62036;48.128;16.458;2024-02-23T08:13:02;2.25;;;0.45;;
73729;SDS011;62036;48.128;16.458;2024-02-23T08:15:28;0.38;;;0.30;;
73729;SDS011;62036;48.128;16.458;2024-02-23T08:17:54;0.55;;;0.40;;
73729;SDS011;62036;48.128;16.458;2024-02-23T08:20:20;0.30;;;0.30;;
73729;SDS011;62036;48.128;16.458;2024-02-23T08:22:47;0.70;;;0.47;;
73729;SDS011;62036;48.128;16.458;2024-02-23T08:25:13;0.50;;;0.30;;
73729;SDS011;62036;48.128;16.458;2024-02-23T08:27:40;0.88;;;0.38;;
73729;SDS011;62036;48.128;16.458;2024-02-23T08:30:06;0.57;;;0.35;;
73729;SDS011;62036;48.128;16.458;2024-02-23T08:32:32;1.38;;;0.57;;
73729;SDS011;62036;48.128;16.458;2024-02-23T08:34:59;1.20;;;0.50;;
73729;SDS011;62036;48.128;16.458;2024-02-23T08:37:25;0.63;;;0.30;;
73729;SDS011;62036;48.128;16.458;2024-02-23T08:39:51;1.88;;;0.47;;
73729;SDS011;62036;48.128;16.458;2024-02-23T08:42:18;2.78;;;1.05;;
73729;SDS011;62036;48.128;16.458;2024-02-23T08:44:44;2.08;;;0.82;;
73729;SDS011;62036;48.128;16.458;2024-02-23T08:47:10;2.33;;;0.80;;
73729;SDS011;62036;48.128;16.458;2024-02-23T08:49:36;0.85;;;0.52;;
73729;SDS011;62036;48.128;16.458;2024-02-23T08:52:02;0.93;;;0.80;;
73729;SDS011;62036;48.128;16.458;2024-02-23T08:54:29;1.27;;;0.50;;
73729;SDS011;62036;48.128;16.458;2024-02-23T08:56:55;1.33;;;0.77;;
73729;SDS011;62036;48.128;16.458;2024-02-23T08:59:21;2.08;;;0.60;;
73729;SDS011;62036;48.128;16.458;2024-02-23T09:01:47;2.03;;;0.50;;
73729;SDS011;62036;48.128;16.458;2024-02-23T09:04:13;1.00;;;0.40;;
73729;SDS011;62036;48.128;16.458;2024-02-23T09:06:39;0.88;;;0.70;;
73729;SDS011;62036;48.128;16.458;2024-02-23T09:09:05;1.73;;;0.52;;
73729;SDS011;62036;48.128;16.458;2024-02-23T09:11:31;1.25;;;0.70;;
73729;SDS011;62036;48.128;16.458;2024-02-23T09:13:57;1.30;;;0.60;;
73729;SDS011;62036;48.128;16.458;2024-02-23T09:16:24;4.13;;;1.52;;
73729;SDS011;62036;48.128;16.458;2024-02-23T09:18:50;2.58;;;0.98;;
73729;SDS011;62036;48.128;16.458;2024-02-23T09:21:16;1.30;;;0.80;;
73729;SDS011;62036;48.128;16.458;2024-02-23T09:23:44;3.22;;;0.70;;
73729;SDS011;62036;48.128;16.458;2024-02-23T09:26:10;0.90;;;0.43;;
73729;SDS011;62036;48.128;16.458;2024-02-23T09:28:36;0.85;;;0.20;;
73729;SDS011;62036;48.128;16.458;2024-02-23T09:31:02;0.57;;;0.30;;
73729;SDS011;62036;48.128;16.458;2024-02-23T09:33:29;0.35;;;0.35;;
73729;SDS011;62036;48.128;16.458;2024-02-23T09:35:56;1.98;;;0.32;;
73729;SDS011;62036;48.128;16.458;2024-02-23T09:38:22;0.63;;;0.30;;
73729;SDS011;62036;48.128;16.458;2024-02-23T09:40:50;0.38;;;0.10;;
73729;SDS011;62036;48.128;16.458;2024-02-23T09:43:16;0.68;;;0.30;;
73729;SDS011;62036;48.128;16.458;2024-02-23T09:45:42;0.68;;;0.40;;
73729;SDS011;62036;48.128;16.458;2024-02-23T09:48:08;0.52;;;0.20;;
73729;SDS011;62036;48.128;16.458;2024-02-23T09:50:37;0.57;;;0.10;;
73729;SDS011;62036;48.128;16.458;2024-02-23T09:53:04;1.63;;;1.00;;
73729;SDS011;62036;48.128;16.458;2024-02-23T09:55:33;0.60;;;0.50;;
73729;SDS011;62036;48.128;16.458;2024-02-23T09:57:59;1.95;;;0.30;;
73729;SDS011;62036;48.128;16.458;2024-02-23T10:00:26;0.85;;;0.20;;
73729;SDS011;62036;48.128;16.458;2024-02-23T10:02:53;1.98;;;0.50;;
73729;SDS011;62036;48.128;16.458;2024-02-23T10:05:21;0.73;;;0.60;;
73729;SDS011;62036;48.128;16.458;2024-02-23T10:07:48;1.08;;;0.70;;
73729;SDS011;62036;48.128;16.458;2024-02-23T10:10:24;0.70;;;0.43;;
73729;SDS011;62036;48.128;16.458;2024-02-23T10:12:51;2.05;;;0.28;;
73729;SDS011;62036;48.128;16.458;2024-02-23T10:15:17;0.28;;;0.20;;
73729;SDS011;62036;48.128;16.458;2024-02-23T10:17:43;0.25;;;0.10;;
73729;SDS011;62036;48.128;16.458;2024-02-23T10:20:10;0.20;;;0.20;;
73729;SDS011;62036;48.128;16.458;2024-02-23T10:22:36;1.65;;;0.93;;
73729;SDS011;62036;48.128;16.458;2024-02-23T10:25:02;2.60;;;0.90;;
73729;SDS011;62036;48.128;16.458;2024-02-23T10:27:28;2.75;;;1.60;;
73729;SDS011;62036;48.128;16.458;2024-02-23T10:29:54;2.17;;;1.02;;
73729;SDS011;62036;48.128;16.458;2024-02-23T10:32:20;4.80;;;2.70;;
73729;SDS011;62036;48.128;16.458;2024-02-23T10:34:47;1.27;;;0.75;;
73729;SDS011;62036;48.128;16.458;2024-02-23T10:37:16;1.60;;;0.68;;
73729;SDS011;62036;48.128;16.458;2024-02-23T10:39:43;2.15;;;0.98;;
73729;SDS011;62036;48.128;16.458;2024-02-23T10:42:09;1.67;;;0.80;;
73729;SDS011;62036;48.128;16.458;2024-02-23T10:44:38;0.80;;;0.70;;
73729;SDS011;62036;48.128;16.458;2024-02-23T10:47:05;0.88;;;0.55;;
73729;SDS011;62036;48.128;16.458;2024-02-23T10:49:31;1.13;;;0.70;;
73729;SDS011;62036;48.128;16.458;2024-02-23T10:51:57;0.55;;;0.40;;
73729;SDS011;62036;48.128;16.458;2024-02-23T10:54:23;2.58;;;0.40;;
73729;SDS011;62036;48.128;16.458;2024-02-23T10:56:50;0.70;;;0.35;;
73729;SDS011;62036;48.128;16.458;2024-02-23T10:59:16;0.82;;;0.50;;
73729;SDS011;62036;48.128;16.458;2024-02-23T11:01:56;0.40;;;0.40;;
73729;SDS011;62036;48.128;16.458;2024-02-23T11:04:24;0.50;;;0.28;;
73729;SDS011;62036;48.128;16.458;2024-02-23T11:06:51;0.40;;;0.38;;
73729;SDS011;62036;48.128;16.458;2024-02-23T11:09:20;0.90;;;0.30;;
73729;SDS011;62036;48.128;16.458;2024-02-23T11:14:28;0.20;;;0.20;;
73729;SDS011;62036;48.128;16.458;2024-02-23T11:16:55;0.20;;;0.20;;
73729;SDS011;62036;48.128;16.458;2024-02-23T11:19:21;0.70;;;0.20;;
73729;SDS011;62036;48.128;16.458;2024-02-23T11:21:57;1.45;;;0.70;;
73729;SDS011;62036;48.128;16.458;2024-02-23T11:24:25;1.52;;;0.60;;
73729;SDS011;62036;48.128;16.458;2024-02-23T11:26:55;1.08;;;0.70;;
73729;SDS011;62036;48.128;16.458;2024-02-23T11:29:21;0.75;;;0.40;;
73729;SDS011;62036;48.128;16.458;2024-02-23T11:31:48;2.38;;;0.90;;
73729;SDS011;62036;48.128;16.458;2024-02-23T11:34:14;0.47;;;0.35;;
73729;SDS011;62036;48.128;16.458;2024-02-23T11:36:50;1.55;;;0.52;;
73729;SDS011;62036;48.128;16.458;2024-02-23T11:39:17;1.23;;;0.75;;
73729;SDS011;62036;48.128;16.458;2024-02-23T11:41:45;2.65;;;1.08;;
73729;SDS011;62036;48.128;16.458;2024-02-23T11:44:14;4.20;;;0.98;;
73729;SDS011;62036;48.128;16.458;2024-02-23T11:46:42;1.27;;;1.00;;
73729;SDS011;62036;48.128;16.458;2024-02-23T11:49:08;1.95;;;0.93;;
73729;SDS011;62036;48.128;16.458;2024-02-23T11:51:34;0.98;;;0.82;;
73729;SDS011;62036;48.128;16.458;2024-02-23T11:54:01;0.85;;;0.50;;
73729;SDS011;62036;48.128;16.458;2024-02-23T11:56:28;0.82;;;0.47;;
73729;SDS011;62036;48.128;16.458;2024-02-23T11:58:55;0.80;;;0.50;;
73729;SDS011;62036;48.128;16.458;2024-02-23T12:01:21;0.35;;;0.35;;
73729;SDS011;62036;48.128;16.458;2024-02-23T12:03:47;2.13;;;0.68;;
73729;SDS011;62036;48.128;16.458;2024-02-23T12:06:16;0.65;;;0.60;;
73729;SDS011;62036;48.128;16.458;2024-02-23T12:08:42;1.50;;;0.90;;
73729;SDS011;62036;48.128;16.458;2024-02-23T12:11:10;1.42;;;0.80;;
73729;SDS011;62036;48.128;16.458;2024-02-23T12:13:38;1.10;;;0.80;;
73729;SDS011;62036;48.128;16.458;2024-02-23T12:16:06;1.73;;;0.75;;
73729;SDS011;62036;48.128;16.458;2024-02-23T12:18:33;1.30;;;0.73;;
73729;SDS011;62036;48.128;16.458;2024-02-23T12:20:59;0.93;;;0.73;;
73729;SDS011;62036;48.128;16.458;2024-02-23T12:23:27;1.35;;;1.13;;
73729;SDS011;62036;48.128;16.458;2024-02-23T12:25:56;0.80;;;0.70;;
73729;SDS011;62036;48.128;16.458;2024-02-23T12:28:22;0.57;;;0.43;;
73729;SDS011;62036;48.128;16.458;2024-02-23T12:31:02;1.35;;;0.80;;
73729;SDS011;62036;48.128;16.458;2024-02-23T12:33:28;2.42;;;1.55;;
73729;SDS011;62036;48.128;16.458;2024-02-23T12:35:55;1.05;;;0.70;;
73729;SDS011;62036;48.128;16.458;2024-02-23T12:38:21;1.58;;;1.10;;
73729;SDS011;62036;48.128;16.458;2024-02-23T12:40:47;1.50;;;1.00;;
73729;SDS011;62036;48.128;16.458;2024-02-23T12:43:13;1.38;;;0.85;;
73729;SDS011;62036;48.128;16.458;2024-02-23T12:45:39;1.67;;;1.10;;
73729;SDS011;62036;48.128;16.458;2024-02-23T12:48:06;1.83;;;0.95;;
73729;SDS011;62036;48.128;16.458;2024-02-23T12:50:32;1.23;;;1.13;;
73729;SDS011;62036;48.128;16.458;2024-02-23T12:52:58;1.30;;;1.00;;
73729;SDS011;62036;48.128;16.458;2024-02-23T12:55:25;1.63;;;1.20;;
73729;SDS011;62036;48.128;16.458;2024-02-23T12:57:51;2.05;;;1.17;;
73729;SDS011;62036;48.128;16.458;2024-02-23T13:00:17;3.55;;;1.70;;
73729;SDS011;62036;48.128;16.458;2024-02-23T13:02:44;1.10;;;0.75;;
73729;SDS011;62036;48.128;16.458;2024-02-23T13:05:10;1.30;;;0.95;;
73729;SDS011;62036;48.128;16.458;2024-02-23T13:07:36;1.27;;;0.88;;
73729;SDS011;62036;48.128;16.458;2024-02-23T13:10:05;1.42;;;1.10;;
73729;SDS011;62036;48.128;16.458;2024-02-23T13:12:32;1.08;;;0.80;;
73729;SDS011;62036;48.128;16.458;2024-02-23T13:14:58;1.58;;;1.13;;
73729;SDS011;62036;48.128;16.458;2024-02-23T13:17:24;1.40;;;1.20;;
73729;SDS011;62036;48.128;16.458;2024-02-23T13:19:50;1.80;;;1.00;;
73729;SDS011;62036;48.128;16.458;2024-02-23T13:22:16;2.67;;;1.60;;
73729;SDS011;62036;48.128;16.458;2024-02-23T13:24:43;1.95;;;1.10;;
73729;SDS011;62036;48.128;16.458;2024-02-23T13:27:09;2.83;;;1.02;;
73729;SDS011;62036;48.128;16.458;2024-02-23T13:29:35;1.05;;;0.95;;
73729;SDS011;62036;48.128;16.458;2024-02-23T13:32:01;1.30;;;1.10;;
73729;SDS011;62036;48.128;16.458;2024-02-23T13:34:27;1.23;;;1.00;;
73729;SDS011;62036;48.128;16.458;2024-02-23T13:36:53;1.38;;;1.15;;
73729;SDS011;62036;48.128;16.458;2024-02-23T13:39:19;1.50;;;0.90;;
73729;SDS011;62036;48.128;16.458;2024-02-23T13:41:46;1.20;;;1.10;;
73729;SDS011;62036;48.128;16.458;2024-02-23T13:44:12;1.60;;;1.13;;
73729;SDS011;62036;48.128;16.458;2024-02-23T13:46:38;1.20;;;1.10;;
73729;SDS011;62036;48.128;16.458;2024-02-23T13:49:05;1.65;;;0.98;;
73729;SDS011;62036;48.128;16.458;2024-02-23T13:51:32;5.75;;;3.13;;
73729;SDS011;62036;48.128;16.458;2024-02-23T13:53:58;2.22;;;1.60;;
73729;SDS011;62036;48.128;16.458;2024-02-23T13:56:24;2.40;;;1.13;;
73729;SDS011;62036;48.128;16.458;2024-02-23T13:58:50;2.47;;;1.50;;
73729;SDS011;62036;48.128;16.458;2024-02-23T14:01:16;4.03;;;2.17;;
73729;SDS011;62036;48.128;16.458;2024-02-23T14:03:42;4.18;;;1.88;;
73729;SDS011;62036;48.128;16.458;2024-02-23T14:06:08;5.00;;;2.83;;
73729;SDS011;62036;48.128;16.458;2024-02-23T14:08:35;2.30;;;1.30;;
73729;SDS011;62036;48.128;16.458;2024-02-23T14:11:02;2.40;;;1.25;;
73729;SDS011;62036;48.128;16.458;2024-02-23T14:13:32;1.63;;;1.48;;
73729;SDS011;62036;48.128;16.458;2024-02-23T14:15:58;1.63;;;1.35;;
73729;SDS011;62036;48.128;16.458;2024-02-23T14:18:26;2.53;;;1.52;;
73729;SDS011;62036;48.128;16.458;2024-02-23T14:20:52;2.00;;;1.00;;
73729;SDS011;62036;48.128;16.458;2024-02-23T14:23:18;1.67;;;1.33;;
73729;SDS011;62036;48.128;16.458;2024-02-23T14:25:44;2.35;;;1.35;;
73729;SDS011;62036;48.128;16.458;2024-02-23T14:28:10;2.72;;;1.63;;
73729;SDS011;62036;48.128;16.458;2024-02-23T14:30:37;2.92;;;1.50;;
73729;SDS011;62036;48.128;16.458;2024-02-23T14:33:05;5.35;;;3.10;;